sensor_id;sensor_type;location;lat;lon;timestamp;temperature;humidity
25352;DHT22;13304;48.464;8.712;2022-07-29T00:02:23;22.70;76.30
25352;DHT22;13304;48.464;8.712;2022-07-29T00:04:48;22.70;76.40
25352;DHT22;13304;48.464;8.712;2022-07-29T00:07:14;22.70;76.30
25352;DHT22;13304;48.464;8.712;2022-07-29T00:09:40;22.70;76.30
25352;DHT22;13304;48.464;8.712;2022-07-29T00:12:06;22.70;76.50
25352;DHT22;13304;48.464;8.712;2022-07-29T00:14:31;22.70;76.50
25352;DHT22;13304;48.464;8.712;2022-07-29T00:16:57;22.70;76.50
25352;DHT22;13304;48.464;8.712;2022-07-29T00:19:23;22.60;76.40
25352;DHT22;13304;48.464;8.712;2022-07-29T00:21:48;22.60;76.20
25352;DHT22;13304;48.464;8.712;2022-07-29T00:24:14;22.60;76.10
25352;DHT22;13304;48.464;8.712;2022-07-29T00:26:40;22.60;76.10
25352;DHT22;13304;48.464;8.712;2022-07-29T00:29:06;22.50;76.00
25352;DHT22;13304;48.464;8.712;2022-07-29T00:31:31;22.50;76.30
25352;DHT22;13304;48.464;8.712;2022-07-29T00:33:57;22.50;76.60
25352;DHT22;13304;48.464;8.712;2022-07-29T00:36:23;22.40;76.90
25352;DHT22;13304;48.464;8.712;2022-07-29T00:38:50;22.40;77.00
25352;DHT22;13304;48.464;8.712;2022-07-29T00:41:17;22.30;77.10
25352;DHT22;13304;48.464;8.712;2022-07-29T00:43:43;22.30;77.20
25352;DHT22;13304;48.464;8.712;2022-07-29T00:46:09;22.30;77.30
25352;DHT22;13304;48.464;8.712;2022-07-29T00:48:35;22.30;77.70
25352;DHT22;13304;48.464;8.712;2022-07-29T00:51:03;22.20;77.90
25352;DHT22;13304;48.464;8.712;2022-07-29T00:53:29;22.20;78.00
25352;DHT22;13304;48.464;8.712;2022-07-29T00:55:55;22.20;77.90
25352;DHT22;13304;48.464;8.712;2022-07-29T00:58:22;22.20;78.00
25352;DHT22;13304;48.464;8.712;2022-07-29T01:00:48;22.20;78.10
25352;DHT22;13304;48.464;8.712;2022-07-29T01:03:14;22.20;78.20
25352;DHT22;13304;48.464;8.712;2022-07-29T01:05:41;22.20;78.40
25352;DHT22;13304;48.464;8.712;2022-07-29T01:08:07;22.20;78.50
25352;DHT22;13304;48.464;8.712;2022-07-29T01:10:37;22.20;78.40
25352;DHT22;13304;48.464;8.712;2022-07-29T01:13:03;22.10;78.40
25352;DHT22;13304;48.464;8.712;2022-07-29T01:15:30;22.10;78.50
25352;DHT22;13304;48.464;8.712;2022-07-29T01:18:14;22.10;78.40
25352;DHT22;13304;48.464;8.712;2022-07-29T01:26:28;22.10;78.30
25352;DHT22;13304;48.464;8.712;2022-07-29T01:31:58;22.00;78.60
25352;DHT22;13304;48.464;8.712;2022-07-29T01:34:29;22.00;78.10
25352;DHT22;13304;48.464;8.712;2022-07-29T01:39:46;21.80;78.80
25352;DHT22;13304;48.464;8.712;2022-07-29T01:44:45;21.70;78.50
25352;DHT22;13304;48.464;8.712;2022-07-29T01:47:21;21.80;78.90
25352;DHT22;13304;48.464;8.712;2022-07-29T01:49:51;21.80;79.10
25352;DHT22;13304;48.464;8.712;2022-07-29T01:52:42;21.80;79.20
25352;DHT22;13304;48.464;8.712;2022-07-29T01:55:14;21.70;79.60
25352;DHT22;13304;48.464;8.712;2022-07-29T01:57:45;21.80;79.30
25352;DHT22;13304;48.464;8.712;2022-07-29T02:00:12;21.70;79.20
25352;DHT22;13304;48.464;8.712;2022-07-29T02:02:41;21.70;79.20
25352;DHT22;13304;48.464;8.712;2022-07-29T02:05:10;21.70;79.20
25352;DHT22;13304;48.464;8.712;2022-07-29T02:07:37;21.60;79.10
25352;DHT22;13304;48.464;8.712;2022-07-29T02:10:05;21.70;79.10
25352;DHT22;13304;48.464;8.712;2022-07-29T02:12:32;21.60;78.90
25352;DHT22;13304;48.464;8.712;2022-07-29T02:15:01;21.60;78.90
25352;DHT22;13304;48.464;8.712;2022-07-29T02:17:32;21.50;78.90
25352;DHT22;13304;48.464;8.712;2022-07-29T02:20:00;21.50;79.00
25352;DHT22;13304;48.464;8.712;2022-07-29T02:22:29;21.50;79.10
25352;DHT22;13304;48.464;8.712;2022-07-29T02:24:55;21.50;79.20
25352;DHT22;13304;48.464;8.712;2022-07-29T02:27:23;21.50;79.20
25352;DHT22;13304;48.464;8.712;2022-07-29T02:29:50;21.40;79.30
25352;DHT22;13304;48.464;8.712;2022-07-29T02:32:17;21.40;79.30
25352;DHT22;13304;48.464;8.712;2022-07-29T02:34:44;21.40;79.40
25352;DHT22;13304;48.464;8.712;2022-07-29T02:37:11;21.40;79.60
25352;DHT22;13304;48.464;8.712;2022-07-29T02:39:40;21.40;79.90
25352;DHT22;13304;48.464;8.712;2022-07-29T02:42:10;21.40;79.90
25352;DHT22;13304;48.464;8.712;2022-07-29T02:44:37;21.30;79.90
25352;DHT22;13304;48.464;8.712;2022-07-29T02:47:27;21.30;79.70
25352;DHT22;13304;48.464;8.712;2022-07-29T02:50:12;21.30;80.20
25352;DHT22;13304;48.464;8.712;2022-07-29T02:52:50;21.30;79.90
25352;DHT22;13304;48.464;8.712;2022-07-29T02:55:43;21.30;79.80
25352;DHT22;13304;48.464;8.712;2022-07-29T02:58:13;21.30;80.00
25352;DHT22;13304;48.464;8.712;2022-07-29T03:00:41;21.30;79.50
25352;DHT22;13304;48.464;8.712;2022-07-29T03:03:12;21.30;79.40
25352;DHT22;13304;48.464;8.712;2022-07-29T03:05:39;21.30;79.50
25352;DHT22;13304;48.464;8.712;2022-07-29T03:08:06;21.30;79.40
25352;DHT22;13304;48.464;8.712;2022-07-29T03:10:33;21.30;79.50
25352;DHT22;13304;48.464;8.712;2022-07-29T03:13:00;21.30;79.40
25352;DHT22;13304;48.464;8.712;2022-07-29T03:15:27;21.20;79.40
25352;DHT22;13304;48.464;8.712;2022-07-29T03:17:53;21.20;79.20
25352;DHT22;13304;48.464;8.712;2022-07-29T03:20:20;21.20;79.20
25352;DHT22;13304;48.464;8.712;2022-07-29T03:22:46;21.20;79.10
25352;DHT22;13304;48.464;8.712;2022-07-29T03:25:16;21.20;79.10
25352;DHT22;13304;48.464;8.712;2022-07-29T03:27:44;21.20;79.20
25352;DHT22;13304;48.464;8.712;2022-07-29T03:30:11;21.10;79.30
25352;DHT22;13304;48.464;8.712;2022-07-29T03:32:39;21.10;79.40
25352;DHT22;13304;48.464;8.712;2022-07-29T03:35:05;21.10;79.40
25352;DHT22;13304;48.464;8.712;2022-07-29T03:37:31;21.10;79.40
25352;DHT22;13304;48.464;8.712;2022-07-29T03:40:00;21.10;79.40
25352;DHT22;13304;48.464;8.712;2022-07-29T03:42:34;21.10;79.70
25352;DHT22;13304;48.464;8.712;2022-07-29T03:45:05;21.00;79.90
25352;DHT22;13304;48.464;8.712;2022-07-29T03:47:33;21.00;80.10
25352;DHT22;13304;48.464;8.712;2022-07-29T03:50:05;21.00;80.10
25352;DHT22;13304;48.464;8.712;2022-07-29T03:52:31;21.00;79.90
25352;DHT22;13304;48.464;8.712;2022-07-29T03:54:57;21.00;79.80
25352;DHT22;13304;48.464;8.712;2022-07-29T03:57:25;20.90;79.70
25352;DHT22;13304;48.464;8.712;2022-07-29T03:59:53;20.90;79.90
25352;DHT22;13304;48.464;8.712;2022-07-29T04:02:19;20.90;80.00
25352;DHT22;13304;48.464;8.712;2022-07-29T04:04:45;20.90;80.10
25352;DHT22;13304;48.464;8.712;2022-07-29T04:07:14;20.90;80.30
25352;DHT22;13304;48.464;8.712;2022-07-29T04:09:40;20.80;80.60
25352;DHT22;13304;48.464;8.712;2022-07-29T04:12:07;20.80;80.40
25352;DHT22;13304;48.464;8.712;2022-07-29T04:14:33;20.90;80.40
25352;DHT22;13304;48.464;8.712;2022-07-29T04:17:01;20.90;80.50
25352;DHT22;13304;48.464;8.712;2022-07-29T04:19:27;20.90;80.50
25352;DHT22;13304;48.464;8.712;2022-07-29T04:21:53;20.90;80.70
25352;DHT22;13304;48.464;8.712;2022-07-29T04:24:19;20.90;80.70
25352;DHT22;13304;48.464;8.712;2022-07-29T04:26:48;20.90;80.70
25352;DHT22;13304;48.464;8.712;2022-07-29T04:29:14;20.80;80.80
25352;DHT22;13304;48.464;8.712;2022-07-29T04:31:43;20.70;80.70
25352;DHT22;13304;48.464;8.712;2022-07-29T04:34:09;20.80;80.70
25352;DHT22;13304;48.464;8.712;2022-07-29T04:36:35;20.90;80.80
25352;DHT22;13304;48.464;8.712;2022-07-29T04:39:01;20.90;81.00
25352;DHT22;13304;48.464;8.712;2022-07-29T04:41:28;20.80;81.10
25352;DHT22;13304;48.464;8.712;2022-07-29T04:43:54;20.90;81.40
25352;DHT22;13304;48.464;8.712;2022-07-29T04:46:19;20.90;81.40
25352;DHT22;13304;48.464;8.712;2022-07-29T04:48:46;20.90;81.70
25352;DHT22;13304;48.464;8.712;2022-07-29T04:51:13;20.90;82.10
25352;DHT22;13304;48.464;8.712;2022-07-29T04:53:39;21.00;82.50
25352;DHT22;13304;48.464;8.712;2022-07-29T04:56:04;21.00;82.60
25352;DHT22;13304;48.464;8.712;2022-07-29T04:58:30;21.00;82.40
25352;DHT22;13304;48.464;8.712;2022-07-29T05:00:56;21.00;82.30
25352;DHT22;13304;48.464;8.712;2022-07-29T05:03:22;21.10;82.20
25352;DHT22;13304;48.464;8.712;2022-07-29T05:05:48;21.10;82.30
25352;DHT22;13304;48.464;8.712;2022-07-29T05:08:13;21.10;82.20
25352;DHT22;13304;48.464;8.712;2022-07-29T05:10:39;21.10;82.20
25352;DHT22;13304;48.464;8.712;2022-07-29T05:13:06;21.10;82.20
25352;DHT22;13304;48.464;8.712;2022-07-29T05:15:33;21.20;82.30
25352;DHT22;13304;48.464;8.712;2022-07-29T05:17:59;21.20;82.30
25352;DHT22;13304;48.464;8.712;2022-07-29T05:20:25;21.20;82.30
25352;DHT22;13304;48.464;8.712;2022-07-29T05:22:58;21.20;82.30
25352;DHT22;13304;48.464;8.712;2022-07-29T05:25:25;21.20;82.60
25352;DHT22;13304;48.464;8.712;2022-07-29T05:27:51;21.20;82.50
25352;DHT22;13304;48.464;8.712;2022-07-29T05:30:17;21.20;82.50
25352;DHT22;13304;48.464;8.712;2022-07-29T05:32:43;21.20;82.40
25352;DHT22;13304;48.464;8.712;2022-07-29T05:35:09;21.20;82.40
25352;DHT22;13304;48.464;8.712;2022-07-29T05:37:35;21.20;82.40
25352;DHT22;13304;48.464;8.712;2022-07-29T05:40:01;21.20;82.40
25352;DHT22;13304;48.464;8.712;2022-07-29T05:42:27;21.20;82.40
25352;DHT22;13304;48.464;8.712;2022-07-29T05:44:53;21.20;82.50
25352;DHT22;13304;48.464;8.712;2022-07-29T05:47:18;21.20;82.50
25352;DHT22;13304;48.464;8.712;2022-07-29T05:49:44;21.20;82.70
25352;DHT22;13304;48.464;8.712;2022-07-29T05:52:11;21.20;82.90
25352;DHT22;13304;48.464;8.712;2022-07-29T05:54:38;21.20;83.20
25352;DHT22;13304;48.464;8.712;2022-07-29T05:57:05;21.20;83.70
25352;DHT22;13304;48.464;8.712;2022-07-29T05:59:31;21.30;84.20
25352;DHT22;13304;48.464;8.712;2022-07-29T06:02:00;21.30;84.20
25352;DHT22;13304;48.464;8.712;2022-07-29T06:04:26;21.40;84.20
25352;DHT22;13304;48.464;8.712;2022-07-29T06:06:56;21.40;84.30
25352;DHT22;13304;48.464;8.712;2022-07-29T06:09:25;21.40;84.60
25352;DHT22;13304;48.464;8.712;2022-07-29T06:11:51;21.50;85.30
25352;DHT22;13304;48.464;8.712;2022-07-29T06:14:17;21.60;84.40
25352;DHT22;13304;48.464;8.712;2022-07-29T06:16:43;21.70;84.60
25352;DHT22;13304;48.464;8.712;2022-07-29T06:19:09;21.80;84.40
25352;DHT22;13304;48.464;8.712;2022-07-29T06:21:35;21.80;83.90
25352;DHT22;13304;48.464;8.712;2022-07-29T06:24:01;21.90;83.50
25352;DHT22;13304;48.464;8.712;2022-07-29T06:26:27;21.90;83.60
25352;DHT22;13304;48.464;8.712;2022-07-29T06:28:53;22.00;83.30
25352;DHT22;13304;48.464;8.712;2022-07-29T06:31:18;22.10;82.70
25352;DHT22;13304;48.464;8.712;2022-07-29T06:33:44;22.10;82.20
25352;DHT22;13304;48.464;8.712;2022-07-29T06:36:10;22.20;81.90
25352;DHT22;13304;48.464;8.712;2022-07-29T06:38:36;22.20;82.60
25352;DHT22;13304;48.464;8.712;2022-07-29T06:41:03;22.20;82.20
25352;DHT22;13304;48.464;8.712;2022-07-29T06:43:39;22.30;82.10
25352;DHT22;13304;48.464;8.712;2022-07-29T06:46:17;22.30;81.70
25352;DHT22;13304;48.464;8.712;2022-07-29T06:48:44;22.30;81.70
25352;DHT22;13304;48.464;8.712;2022-07-29T06:51:10;22.40;81.80
25352;DHT22;13304;48.464;8.712;2022-07-29T06:53:39;22.40;81.90
25352;DHT22;13304;48.464;8.712;2022-07-29T06:56:07;22.50;81.90
25352;DHT22;13304;48.464;8.712;2022-07-29T06:58:34;22.50;81.70
25352;DHT22;13304;48.464;8.712;2022-07-29T07:01:03;22.60;81.70
25352;DHT22;13304;48.464;8.712;2022-07-29T07:03:29;22.60;81.50
25352;DHT22;13304;48.464;8.712;2022-07-29T07:05:55;22.60;81.20
25352;DHT22;13304;48.464;8.712;2022-07-29T07:08:21;22.60;81.20
25352;DHT22;13304;48.464;8.712;2022-07-29T07:10:49;22.70;81.00
25352;DHT22;13304;48.464;8.712;2022-07-29T07:13:15;22.70;80.90
25352;DHT22;13304;48.464;8.712;2022-07-29T07:15:43;22.70;81.30
25352;DHT22;13304;48.464;8.712;2022-07-29T07:18:09;22.80;81.30
25352;DHT22;13304;48.464;8.712;2022-07-29T07:20:35;22.80;81.50
25352;DHT22;13304;48.464;8.712;2022-07-29T07:23:01;22.90;81.60
25352;DHT22;13304;48.464;8.712;2022-07-29T07:25:28;23.00;80.90
25352;DHT22;13304;48.464;8.712;2022-07-29T07:27:53;23.00;81.40
25352;DHT22;13304;48.464;8.712;2022-07-29T07:30:20;23.00;81.90
25352;DHT22;13304;48.464;8.712;2022-07-29T07:32:45;23.10;81.80
25352;DHT22;13304;48.464;8.712;2022-07-29T07:35:11;23.10;81.40
25352;DHT22;13304;48.464;8.712;2022-07-29T07:37:38;23.20;81.20
25352;DHT22;13304;48.464;8.712;2022-07-29T07:40:07;23.20;80.70
25352;DHT22;13304;48.464;8.712;2022-07-29T07:42:33;23.30;80.30
25352;DHT22;13304;48.464;8.712;2022-07-29T07:44:59;23.30;79.80
25352;DHT22;13304;48.464;8.712;2022-07-29T07:47:25;23.40;79.50
25352;DHT22;13304;48.464;8.712;2022-07-29T07:49:52;23.40;79.60
25352;DHT22;13304;48.464;8.712;2022-07-29T07:52:20;23.50;79.20
25352;DHT22;13304;48.464;8.712;2022-07-29T07:54:47;23.50;78.00
25352;DHT22;13304;48.464;8.712;2022-07-29T07:57:13;23.60;77.60
25352;DHT22;13304;48.464;8.712;2022-07-29T07:59:39;23.60;77.70
25352;DHT22;13304;48.464;8.712;2022-07-29T08:02:05;23.70;78.10
25352;DHT22;13304;48.464;8.712;2022-07-29T08:04:32;23.70;77.40
25352;DHT22;13304;48.464;8.712;2022-07-29T08:07:10;23.80;77.50
25352;DHT22;13304;48.464;8.712;2022-07-29T08:09:36;23.90;77.20
25352;DHT22;13304;48.464;8.712;2022-07-29T08:12:03;23.90;76.50
25352;DHT22;13304;48.464;8.712;2022-07-29T08:14:31;24.00;76.00
25352;DHT22;13304;48.464;8.712;2022-07-29T08:16:58;24.10;75.10
25352;DHT22;13304;48.464;8.712;2022-07-29T08:19:24;24.20;74.80
25352;DHT22;13304;48.464;8.712;2022-07-29T08:21:50;24.20;74.80
25352;DHT22;13304;48.464;8.712;2022-07-29T08:24:17;24.30;74.60
25352;DHT22;13304;48.464;8.712;2022-07-29T08:27:01;24.40;74.10
25352;DHT22;13304;48.464;8.712;2022-07-29T08:29:28;24.50;73.30
25352;DHT22;13304;48.464;8.712;2022-07-29T08:31:54;24.50;72.80
25352;DHT22;13304;48.464;8.712;2022-07-29T08:34:20;24.60;72.10
25352;DHT22;13304;48.464;8.712;2022-07-29T08:36:46;24.60;72.00
25352;DHT22;13304;48.464;8.712;2022-07-29T08:39:11;24.70;72.40
25352;DHT22;13304;48.464;8.712;2022-07-29T08:41:37;24.70;71.60
25352;DHT22;13304;48.464;8.712;2022-07-29T08:44:03;24.80;71.30
25352;DHT22;13304;48.464;8.712;2022-07-29T08:46:29;24.90;71.20
25352;DHT22;13304;48.464;8.712;2022-07-29T08:48:55;24.90;70.60
25352;DHT22;13304;48.464;8.712;2022-07-29T08:51:22;24.90;70.60
25352;DHT22;13304;48.464;8.712;2022-07-29T08:53:50;25.00;68.30
25352;DHT22;13304;48.464;8.712;2022-07-29T08:56:17;25.10;68.70
25352;DHT22;13304;48.464;8.712;2022-07-29T08:58:43;25.20;69.20
25352;DHT22;13304;48.464;8.712;2022-07-29T09:01:11;25.30;69.40
25352;DHT22;13304;48.464;8.712;2022-07-29T09:03:38;25.40;67.80
25352;DHT22;13304;48.464;8.712;2022-07-29T09:06:05;25.50;67.70
25352;DHT22;13304;48.464;8.712;2022-07-29T09:08:32;25.60;66.90
25352;DHT22;13304;48.464;8.712;2022-07-29T09:10:58;25.70;65.40
25352;DHT22;13304;48.464;8.712;2022-07-29T09:13:25;25.80;65.90
25352;DHT22;13304;48.464;8.712;2022-07-29T09:15:52;25.90;65.40
25352;DHT22;13304;48.464;8.712;2022-07-29T09:18:34;26.00;64.90
25352;DHT22;13304;48.464;8.712;2022-07-29T09:21:02;26.10;63.00
25352;DHT22;13304;48.464;8.712;2022-07-29T09:24:09;26.10;62.50
25352;DHT22;13304;48.464;8.712;2022-07-29T09:26:43;26.20;61.00
25352;DHT22;13304;48.464;8.712;2022-07-29T09:29:15;26.30;61.80
25352;DHT22;13304;48.464;8.712;2022-07-29T09:31:46;26.30;59.40
25352;DHT22;13304;48.464;8.712;2022-07-29T09:34:15;26.40;60.80
25352;DHT22;13304;48.464;8.712;2022-07-29T09:36:47;26.40;61.00
25352;DHT22;13304;48.464;8.712;2022-07-29T09:39:14;26.40;60.20
25352;DHT22;13304;48.464;8.712;2022-07-29T09:41:51;26.50;60.50
25352;DHT22;13304;48.464;8.712;2022-07-29T09:44:22;26.50;59.00
25352;DHT22;13304;48.464;8.712;2022-07-29T09:46:59;26.60;59.90
25352;DHT22;13304;48.464;8.712;2022-07-29T09:49:35;26.50;59.30
25352;DHT22;13304;48.464;8.712;2022-07-29T09:52:08;26.60;59.20
25352;DHT22;13304;48.464;8.712;2022-07-29T09:54:35;26.60;58.10
25352;DHT22;13304;48.464;8.712;2022-07-29T09:57:09;26.60;59.00
25352;DHT22;13304;48.464;8.712;2022-07-29T10:00:10;26.60;58.80
25352;DHT22;13304;48.464;8.712;2022-07-29T10:02:39;26.60;58.10
25352;DHT22;13304;48.464;8.712;2022-07-29T10:05:26;26.70;58.60
25352;DHT22;13304;48.464;8.712;2022-07-29T10:07:55;26.70;57.90
25352;DHT22;13304;48.464;8.712;2022-07-29T10:10:25;26.80;58.80
25352;DHT22;13304;48.464;8.712;2022-07-29T10:15:23;26.90;58.10
25352;DHT22;13304;48.464;8.712;2022-07-29T10:17:50;26.90;58.10
25352;DHT22;13304;48.464;8.712;2022-07-29T10:20:18;27.00;57.70
25352;DHT22;13304;48.464;8.712;2022-07-29T10:22:44;27.10;57.90
25352;DHT22;13304;48.464;8.712;2022-07-29T10:25:12;27.20;57.50
25352;DHT22;13304;48.464;8.712;2022-07-29T10:27:40;27.20;57.30
25352;DHT22;13304;48.464;8.712;2022-07-29T10:30:08;27.30;57.00
25352;DHT22;13304;48.464;8.712;2022-07-29T10:38:27;27.30;55.80
25352;DHT22;13304;48.464;8.712;2022-07-29T10:41:08;27.40;55.80
25352;DHT22;13304;48.464;8.712;2022-07-29T10:44:14;27.40;55.70
25352;DHT22;13304;48.464;8.712;2022-07-29T10:46:40;27.50;56.10
25352;DHT22;13304;48.464;8.712;2022-07-29T10:59:38;27.70;54.70
25352;DHT22;13304;48.464;8.712;2022-07-29T11:05:07;27.80;53.70
25352;DHT22;13304;48.464;8.712;2022-07-29T11:07:35;27.90;54.40
25352;DHT22;13304;48.464;8.712;2022-07-29T11:23:24;28.00;52.30
25352;DHT22;13304;48.464;8.712;2022-07-29T11:29:02;28.00;52.20
25352;DHT22;13304;48.464;8.712;2022-07-29T11:31:33;28.10;52.60
25352;DHT22;13304;48.464;8.712;2022-07-29T11:47:28;28.10;51.90
25352;DHT22;13304;48.464;8.712;2022-07-29T11:49:56;28.10;51.80
25352;DHT22;13304;48.464;8.712;2022-07-29T11:52:36;28.10;51.60
25352;DHT22;13304;48.464;8.712;2022-07-29T11:55:05;28.10;51.80
25352;DHT22;13304;48.464;8.712;2022-07-29T11:57:34;28.20;51.80
25352;DHT22;13304;48.464;8.712;2022-07-29T12:00:00;28.20;51.80
25352;DHT22;13304;48.464;8.712;2022-07-29T12:02:39;28.20;51.00
25352;DHT22;13304;48.464;8.712;2022-07-29T12:05:08;28.20;51.20
25352;DHT22;13304;48.464;8.712;2022-07-29T12:07:34;28.30;51.50
25352;DHT22;13304;48.464;8.712;2022-07-29T12:10:01;28.30;51.00
25352;DHT22;13304;48.464;8.712;2022-07-29T12:12:28;28.30;50.70
25352;DHT22;13304;48.464;8.712;2022-07-29T12:14:54;28.30;50.60
25352;DHT22;13304;48.464;8.712;2022-07-29T12:17:34;28.20;50.30
25352;DHT22;13304;48.464;8.712;2022-07-29T12:20:04;28.10;50.10
25352;DHT22;13304;48.464;8.712;2022-07-29T12:22:42;28.20;49.80
25352;DHT22;13304;48.464;8.712;2022-07-29T12:25:10;28.10;49.70
25352;DHT22;13304;48.464;8.712;2022-07-29T12:27:39;28.10;49.50
25352;DHT22;13304;48.464;8.712;2022-07-29T12:30:08;28.10;49.90
25352;DHT22;13304;48.464;8.712;2022-07-29T12:32:36;28.10;50.30
25352;DHT22;13304;48.464;8.712;2022-07-29T12:35:07;28.10;50.60
25352;DHT22;13304;48.464;8.712;2022-07-29T12:37:36;28.00;50.60
25352;DHT22;13304;48.464;8.712;2022-07-29T12:40:02;28.00;50.80
25352;DHT22;13304;48.464;8.712;2022-07-29T12:42:30;27.90;50.10
25352;DHT22;13304;48.464;8.712;2022-07-29T12:44:57;27.90;51.20
25352;DHT22;13304;48.464;8.712;2022-07-29T12:47:23;28.00;50.80
25352;DHT22;13304;48.464;8.712;2022-07-29T12:49:51;28.00;50.50
25352;DHT22;13304;48.464;8.712;2022-07-29T12:52:35;27.90;51.00
25352;DHT22;13304;48.464;8.712;2022-07-29T12:55:02;27.80;50.70
25352;DHT22;13304;48.464;8.712;2022-07-29T12:57:29;27.80;50.40
25352;DHT22;13304;48.464;8.712;2022-07-29T13:00:11;27.80;50.60
25352;DHT22;13304;48.464;8.712;2022-07-29T13:02:39;27.70;50.50
25352;DHT22;13304;48.464;8.712;2022-07-29T13:05:06;27.70;50.90
25352;DHT22;13304;48.464;8.712;2022-07-29T13:07:35;27.70;50.90
25352;DHT22;13304;48.464;8.712;2022-07-29T13:15:24;27.60;50.90
25352;DHT22;13304;48.464;8.712;2022-07-29T13:17:50;27.60;50.70
25352;DHT22;13304;48.464;8.712;2022-07-29T13:20:17;27.60;50.70
25352;DHT22;13304;48.464;8.712;2022-07-29T13:22:48;27.50;50.90
25352;DHT22;13304;48.464;8.712;2022-07-29T13:25:14;27.50;51.10
25352;DHT22;13304;48.464;8.712;2022-07-29T13:27:49;27.50;50.60
25352;DHT22;13304;48.464;8.712;2022-07-29T13:30:16;27.50;51.10
25352;DHT22;13304;48.464;8.712;2022-07-29T13:32:44;27.60;50.80
25352;DHT22;13304;48.464;8.712;2022-07-29T13:35:11;27.60;50.80
25352;DHT22;13304;48.464;8.712;2022-07-29T13:37:38;27.60;51.10
25352;DHT22;13304;48.464;8.712;2022-07-29T13:40:05;27.60;51.30
25352;DHT22;13304;48.464;8.712;2022-07-29T13:42:32;27.60;51.20
25352;DHT22;13304;48.464;8.712;2022-07-29T13:44:59;27.70;51.20
25352;DHT22;13304;48.464;8.712;2022-07-29T13:47:27;27.70;50.50
25352;DHT22;13304;48.464;8.712;2022-07-29T13:49:57;27.80;50.80
25352;DHT22;13304;48.464;8.712;2022-07-29T13:52:24;27.80;50.90
25352;DHT22;13304;48.464;8.712;2022-07-29T13:54:51;27.90;51.00
25352;DHT22;13304;48.464;8.712;2022-07-29T13:57:18;27.90;50.70
25352;DHT22;13304;48.464;8.712;2022-07-29T13:59:45;27.90;50.60
25352;DHT22;13304;48.464;8.712;2022-07-29T14:02:12;27.90;51.20
25352;DHT22;13304;48.464;8.712;2022-07-29T14:04:39;28.00;50.30
25352;DHT22;13304;48.464;8.712;2022-07-29T14:07:07;28.00;49.50
25352;DHT22;13304;48.464;8.712;2022-07-29T14:09:33;28.00;49.20
25352;DHT22;13304;48.464;8.712;2022-07-29T14:12:01;28.00;48.10
25352;DHT22;13304;48.464;8.712;2022-07-29T14:14:29;28.00;46.80
25352;DHT22;13304;48.464;8.712;2022-07-29T14:16:57;28.00;47.20
25352;DHT22;13304;48.464;8.712;2022-07-29T14:19:24;27.80;47.10
25352;DHT22;13304;48.464;8.712;2022-07-29T14:21:51;27.90;46.80
25352;DHT22;13304;48.464;8.712;2022-07-29T14:24:18;27.90;46.50
25352;DHT22;13304;48.464;8.712;2022-07-29T14:26:45;27.80;45.60
25352;DHT22;13304;48.464;8.712;2022-07-29T14:29:10;27.80;46.50
25352;DHT22;13304;48.464;8.712;2022-07-29T14:31:37;27.80;45.90
25352;DHT22;13304;48.464;8.712;2022-07-29T14:34:06;27.80;46.20
25352;DHT22;13304;48.464;8.712;2022-07-29T14:36:33;27.70;45.80
25352;DHT22;13304;48.464;8.712;2022-07-29T14:39:00;27.70;45.40
25352;DHT22;13304;48.464;8.712;2022-07-29T14:41:27;27.70;45.60
25352;DHT22;13304;48.464;8.712;2022-07-29T14:43:54;27.70;45.60
25352;DHT22;13304;48.464;8.712;2022-07-29T14:46:20;27.60;44.70
25352;DHT22;13304;48.464;8.712;2022-07-29T14:48:47;27.60;44.30
25352;DHT22;13304;48.464;8.712;2022-07-29T14:51:15;27.60;44.60
25352;DHT22;13304;48.464;8.712;2022-07-29T14:53:43;27.60;44.90
25352;DHT22;13304;48.464;8.712;2022-07-29T14:56:09;27.70;45.30
25352;DHT22;13304;48.464;8.712;2022-07-29T14:58:36;27.70;45.60
25352;DHT22;13304;48.464;8.712;2022-07-29T15:01:02;27.60;45.10
25352;DHT22;13304;48.464;8.712;2022-07-29T15:03:31;27.60;44.50
25352;DHT22;13304;48.464;8.712;2022-07-29T15:05:58;27.60;44.90
25352;DHT22;13304;48.464;8.712;2022-07-29T15:08:25;27.60;44.90
25352;DHT22;13304;48.464;8.712;2022-07-29T15:10:53;27.60;45.40
25352;DHT22;13304;48.464;8.712;2022-07-29T15:13:20;27.60;45.20
25352;DHT22;13304;48.464;8.712;2022-07-29T15:15:47;27.60;45.10
25352;DHT22;13304;48.464;8.712;2022-07-29T15:18:13;27.60;45.50
25352;DHT22;13304;48.464;8.712;2022-07-29T15:20:39;27.60;45.90
25352;DHT22;13304;48.464;8.712;2022-07-29T15:23:06;27.60;45.30
25352;DHT22;13304;48.464;8.712;2022-07-29T15:25:35;27.60;45.10
25352;DHT22;13304;48.464;8.712;2022-07-29T15:28:02;27.60;45.10
25352;DHT22;13304;48.464;8.712;2022-07-29T15:30:35;27.60;45.10
25352;DHT22;13304;48.464;8.712;2022-07-29T15:33:07;27.50;45.00
25352;DHT22;13304;48.464;8.712;2022-07-29T15:35:35;27.50;44.80
25352;DHT22;13304;48.464;8.712;2022-07-29T15:38:03;27.50;44.80
25352;DHT22;13304;48.464;8.712;2022-07-29T15:40:32;27.50;45.20
25352;DHT22;13304;48.464;8.712;2022-07-29T15:43:03;27.50;45.50
25352;DHT22;13304;48.464;8.712;2022-07-29T15:45:36;27.50;45.10
25352;DHT22;13304;48.464;8.712;2022-07-29T15:48:04;27.50;45.10
25352;DHT22;13304;48.464;8.712;2022-07-29T15:50:31;27.50;45.10
25352;DHT22;13304;48.464;8.712;2022-07-29T15:52:59;27.60;44.90
25352;DHT22;13304;48.464;8.712;2022-07-29T15:55:25;27.60;44.50
25352;DHT22;13304;48.464;8.712;2022-07-29T15:57:52;27.60;44.50
25352;DHT22;13304;48.464;8.712;2022-07-29T16:00:20;27.60;44.70
25352;DHT22;13304;48.464;8.712;2022-07-29T16:02:47;27.60;44.60
25352;DHT22;13304;48.464;8.712;2022-07-29T16:05:14;27.60;44.80
25352;DHT22;13304;48.464;8.712;2022-07-29T16:07:41;27.60;44.50
25352;DHT22;13304;48.464;8.712;2022-07-29T16:10:08;27.60;44.70
25352;DHT22;13304;48.464;8.712;2022-07-29T16:12:36;27.60;44.30
25352;DHT22;13304;48.464;8.712;2022-07-29T16:15:02;27.60;44.40
25352;DHT22;13304;48.464;8.712;2022-07-29T16:17:29;27.60;44.40
25352;DHT22;13304;48.464;8.712;2022-07-29T16:19:55;27.60;44.10
25352;DHT22;13304;48.464;8.712;2022-07-29T16:22:23;27.60;44.30
25352;DHT22;13304;48.464;8.712;2022-07-29T16:24:53;27.50;44.10
25352;DHT22;13304;48.464;8.712;2022-07-29T16:27:19;27.50;43.60
25352;DHT22;13304;48.464;8.712;2022-07-29T16:29:49;27.50;44.30
25352;DHT22;13304;48.464;8.712;2022-07-29T16:32:16;27.40;43.60
25352;DHT22;13304;48.464;8.712;2022-07-29T16:34:43;27.40;43.30
25352;DHT22;13304;48.464;8.712;2022-07-29T16:37:10;27.40;43.20
25352;DHT22;13304;48.464;8.712;2022-07-29T16:39:37;27.30;43.50
25352;DHT22;13304;48.464;8.712;2022-07-29T16:42:04;27.30;43.80
25352;DHT22;13304;48.464;8.712;2022-07-29T16:44:31;27.30;43.80
25352;DHT22;13304;48.464;8.712;2022-07-29T16:46:58;27.30;43.70
25352;DHT22;13304;48.464;8.712;2022-07-29T16:49:27;27.30;44.00